Aérodrome :
LOGIN :

S'inscrire | Disclaimer

   EN    FR    IT 

 










Légende :    VFR   VFR Marginal   IFR   IFR Intensif   IFR Très Intensif
Visi : 
Plafond : 
>= 8 km
>= 3000ft
5 à 8 km
1000 à 3000 ft
1500m à 5 km
500 à 1000 ft
800 à 1500m
200 à 500 ft
< 800m
< 200 ft
Symboles :   Orages  Brouillard  Fortes neiges  Fortes précipitations  Vent > 20 kt
SIGMETs :   Divers  Orages  Givrage  Turbulence  Onde Orograph.  Cendres Volcan.







- Altitude de l'aérodrome : 616 ft
- Code IATA : PUF
- Voir les cartes d'approche


LFBP - Pau

DERNIER METAR :
  • 190400Z AUTO VRB02KT CAVOK 11/10 Q1017 TEMPO BKN005

METARs EXPIRÉS :
  • 190330Z AUTO 00000KT CAVOK 12/11 Q1017 TEMPO BKN005
  • 190300Z AUTO 18003KT 9999 FEW010 OVC140 12/11 Q1017 TEMPO BKN005
  • 190230Z AUTO 00000KT CAVOK 11/10 Q1017 TEMPO BKN005
  • 190200Z AUTO 26003KT 200V310 CAVOK 12/11 Q1017 TEMPO BKN005
  • 190130Z AUTO 29005KT CAVOK 12/11 Q1017 TEMPO BKN005

TAF TAF LFBP
Valide du 19 à 00h jusqu'au 20 à 00h UTC


182300Z 1900/1924 VRB03KT CAVOK
PROB30 1903/1906 BKN005
BECMG 1910/1913 05005KT
Pas de NOTAMs connus pour ce terrain.
2 SIGMETs publiés pour la FIR Bordeaux (LFBB) :
 
Turbulence forte
LFBB SIGMET 6 VALID 190100/190500 LFPW
LFBB BORDEAUX FIR/UIR SEV TURB FCST WI N4400 E00245 - N4315 E00230 - N4300 E00215 - N4330 E00130 - N4400 E00245 SFC/FL050 STNR NC=
Turbulence forte
LFBB SIGMET 1 VALID 190500/190900 LFPW
LFBB BORDEAUX FIR/UIR SEV TURB FCST WI N4415 E00245 - N4315 E00230 - N4330 E00145 - N4415 E00245 SFC/FL060 STNR NC=



MET'MAP, la Météo Aéronautique d'un coup d'oeil ! - Copyright ORBIFLY Décembre 2007 - Disclaimer

ORBIFLY MET'MAP TEAM :

Programmation & Développement : Alexandra Zaïnal
Conception & Développement : Baudouin d'Aumeries
Co-Programmation & Développement : Marc-Olivier Méhu
Soutien technique & logistique : Manuel Goepfert

Contact : metmap@orbifly.com




SOURCES & CREDITS :

   NOAA